Euskara    
Meteorología y climatología de Navarra
Datos de la estación - Meteo Navarra

Estación de Tafalla GN

Altitud 430 m.


Datos desde el 08/04/2021 hasta el 09/04/2021 en horario solar
Los datos son PROVISIONALES

Anterior Página 1 de 1 Siguiente Descargar: Formato para Excel 2000 o superior   Formato csv   Formato para OpenOffice Calc
Fecha Temperatura Humedad relativa Radiación global Insolación Precipitación Vel. viento 10 m Vel. viento 10 m Dir. viento 10 m
°C % W/m² s l/m² m/s km/h °
08/04/2021 0:00 4.1 61 0.0 0 0.0 0.6 2.1 198
08/04/2021 0:10 3.5 64 0.0 0 0.0 0.6 2.1 211
08/04/2021 0:20 3.3 67 0.0 0 0.0 0.7 2.4 197
08/04/2021 0:30 3.1 68 0.0 0 0.0 0.9 3.3 174
08/04/2021 0:40 2.8 70 0.0 0 0.0 0.8 2.7 177
08/04/2021 0:50 2.9 72 0.0 0 0.0 1.4 5.0 152
08/04/2021 1:00 3.0 72 0.0 0 0.0 0.4 1.3 161
08/04/2021 1:10 2.6 76 0.0 0 0.0 0.0 0.1 182
08/04/2021 1:20 2.9 76 0.0 0 0.0 0.0 0.0 286
08/04/2021 1:30 3.3 76 0.0 0 0.0 0.0 0.1 256
08/04/2021 1:40 3.4 77 0.0 0 0.0 0.9 3.2 190
08/04/2021 1:50 2.5 79 0.0 0 0.0 1.0 3.4 192
08/04/2021 2:00 2.1 86 0.0 0 0.0 0.4 1.4 124
08/04/2021 2:10 3.0 86 0.0 0 0.0 0.7 2.5 171
08/04/2021 2:20 2.5 85 0.0 0 0.0 0.5 1.9 186
08/04/2021 2:30 2.2 87 0.0 0 0.0 2.0 7.3 185
08/04/2021 2:40 1.9 89 0.0 0 0.0 1.4 5.1 188
08/04/2021 2:50 2.0 91 0.0 0 0.0 0.8 2.8 161
08/04/2021 3:00 2.8 92 0.0 0 0.0 1.3 4.6 137
08/04/2021 3:10 3.3 89 0.0 0 0.0 0.5 1.9 92
08/04/2021 3:20 3.1 87 0.0 0 0.0 0.5 1.9 70
08/04/2021 3:30 3.1 88 0.0 0 0.0 0.6 2.1 65
08/04/2021 3:40 3.1 87 0.0 0 0.0 0.8 2.9 54
08/04/2021 3:50 3.0 87 0.0 0 0.0 1.0 3.6 50
08/04/2021 4:00 3.1 88 0.0 0 0.0 0.6 2.2 75
08/04/2021 4:10 2.9 88 0.0 0 0.0 1.0 3.6 90
08/04/2021 4:20 2.8 89 0.0 0 0.0 0.8 3.0 86
08/04/2021 4:30 2.6 89 0.0 0 0.0 0.8 2.8 71
08/04/2021 4:40 2.5 91 0.0 0 0.0 1.1 3.9 70
08/04/2021 4:50 2.6 92 0.0 0 0.0 1.2 4.2 78
08/04/2021 5:00 2.6 92 0.0 0 0.0 1.4 5.1 95
08/04/2021 5:10 2.6 92 0.0 0 0.0 1.4 5.0 92
08/04/2021 5:20 2.6 92 0.0 0 0.0 1.4 4.9 97
08/04/2021 5:30 2.6 92 0.0 0 0.0 1.1 4.1 101
08/04/2021 5:40 2.7 91 0.0 0 0.0 1.2 4.4 83
08/04/2021 5:50 2.7 90 3.4 0 0.0 1.5 5.4 83
08/04/2021 6:00 2.8 88 20.5 0 0.0 1.3 4.8 82
08/04/2021 6:10 3.0 88 23.9 0 0.0 1.0 3.7 96
08/04/2021 6:20 3.5 88 37.9 0 0.0 1.5 5.3 114
08/04/2021 6:30 4.5 89 49.3 0 0.0 2.7 9.7 129
08/04/2021 6:40 5.0 86 59.5 0 0.0 2.7 9.7 127
08/04/2021 6:50 5.4 85 70.3 0 0.0 3.2 11.4 133
08/04/2021 7:00 5.8 83 74.2 0 0.0 3.8 13.8 139
08/04/2021 7:10 6.1 81 77.7 0 0.0 4.4 15.7 146
08/04/2021 7:20 6.4 79 87.0 0 0.0 4.5 16.1 145
08/04/2021 7:30 6.7 77 98.0 0 0.0 4.8 17.4 142
08/04/2021 7:40 6.9 76 119.1 0 0.0 5.0 17.8 141
08/04/2021 7:50 7.1 76 131.3 0 0.0 5.0 18.1 141
08/04/2021 8:00 7.3 75 153.2 0 0.0 5.2 18.9 143
08/04/2021 8:10 7.5 75 165.0 0 0.0 5.5 19.8 141
08/04/2021 8:20 7.7 75 168.2 0 0.0 5.0 18.1 142
08/04/2021 8:30 7.9 75 182.8 0 0.0 5.0 18.0 138
08/04/2021 8:40 8.2 74 190.3 0 0.0 4.7 16.8 136
08/04/2021 8:50 8.5 73 213.3 0 0.0 5.1 18.3 138
08/04/2021 9:00 8.7 73 224.4 0 0.0 5.2 18.8 143
08/04/2021 9:10 9.0 71 227.4 0 0.0 5.0 17.8 140
08/04/2021 9:20 9.2 70 243.1 0 0.0 6.6 23.8 141
08/04/2021 9:30 9.5 69 286.3 0 0.0 5.4 19.3 133
08/04/2021 9:40 9.8 68 327.8 144 0.0 5.8 21.0 140
08/04/2021 9:50 10.3 67 336.7 184 0.0 5.9 21.1 128
08/04/2021 10:00 10.1 67 266.0 0 0.0 5.7 20.4 131
08/04/2021 10:10 10.5 66 329.2 38 0.0 5.5 19.8 134
08/04/2021 10:20 10.9 64 509.6 570 0.0 6.7 24.3 144
08/04/2021 10:30 11.5 62 593.8 600 0.0 6.5 23.4 135
08/04/2021 10:40 12.0 62 778.2 560 0.0 6.9 24.8 136
08/04/2021 10:50 12.1 60 710.1 600 0.0 7.0 25.0 139
08/04/2021 11:00 12.1 60 752.6 600 0.0 6.0 21.5 130
08/04/2021 11:10 12.8 59 752.3 542 0.0 5.9 21.1 144
08/04/2021 11:20 12.9 59 766.6 584 0.0 5.7 20.6 134
08/04/2021 11:30 12.8 57 709.7 528 0.0 5.3 19.0 113
08/04/2021 11:40 13.2 57 765.0 600 0.0 6.3 22.5 130
08/04/2021 11:50 13.2 57 803.0 600 0.0 6.6 23.6 131
08/04/2021 12:00 13.4 56 746.9 600 0.0 5.5 19.9 125
08/04/2021 12:10 13.8 55 930.0 600 0.0 6.0 21.5 117
08/04/2021 12:20 14.4 55 955.0 600 0.0 5.5 19.9 132
08/04/2021 12:30 14.4 54 825.0 600 0.0 5.2 18.5 134
08/04/2021 12:40 14.3 54 765.7 600 0.0 5.6 20.1 142
08/04/2021 12:50 14.5 53 667.2 490 0.0 5.3 19.2 129
08/04/2021 13:00 14.4 54 714.8 600 0.0 4.4 15.7 129
08/04/2021 13:10 14.6 54 615.0 532 0.0 5.3 18.9 130
08/04/2021 13:20 14.6 53 764.2 582 0.0 5.5 19.8 123
08/04/2021 13:30 14.7 54 539.4 556 0.0 5.0 17.9 132
08/04/2021 13:40 14.7 54 676.8 600 0.0 4.6 16.7 128
08/04/2021 13:50 15.5 52 814.0 600 0.0 5.3 19.0 145
08/04/2021 14:00 15.6 51 704.8 600 0.0 4.6 16.4 128
08/04/2021 14:10 15.5 52 623.2 600 0.0 5.1 18.3 136
08/04/2021 14:20 15.8 52 740.1 600 0.0 4.8 17.2 137
08/04/2021 14:30 16.0 51 738.9 600 0.0 5.2 18.9 139
08/04/2021 14:40 15.9 50 665.0 600 0.0 4.4 15.7 122
08/04/2021 14:50 16.1 50 655.0 600 0.0 5.3 19.2 123
08/04/2021 15:00 16.1 50 614.7 600 0.0 4.0 14.5 124
08/04/2021 15:10 16.3 49 577.8 600 0.0 4.6 16.5 127
08/04/2021 15:20 16.2 49 546.2 600 0.0 4.6 16.5 133
08/04/2021 15:30 16.4 49 511.3 600 0.0 3.9 14.1 133
08/04/2021 15:40 16.5 48 446.7 600 0.0 4.1 14.9 119
08/04/2021 15:50 16.6 48 439.2 600 0.0 3.7 13.5 123
08/04/2021 16:00 16.7 48 408.8 600 0.0 3.8 13.6 128
08/04/2021 16:10 16.6 49 379.8 600 0.0 4.3 15.5 148
08/04/2021 16:20 16.6 49 354.6 600 0.0 3.7 13.2 134
08/04/2021 16:30 16.7 49 328.8 600 0.0 3.4 12.3 144
08/04/2021 16:40 16.7 50 292.3 600 0.0 3.4 12.3 146
08/04/2021 16:50 16.5 49 202.0 358 0.0 4.1 14.6 132
08/04/2021 17:00 15.9 51 79.4 0 0.0 3.2 11.4 130
08/04/2021 17:10 15.8 51 71.9 0 0.0 3.7 13.2 139
08/04/2021 17:20 15.6 52 51.2 0 0.0 3.4 12.2 145
08/04/2021 17:30 15.5 52 44.0 0 0.0 2.7 9.6 133
08/04/2021 17:40 15.5 53 30.1 0 0.0 2.6 9.4 138
08/04/2021 17:50 15.4 53 26.6 0 0.0 2.9 10.4 134
08/04/2021 18:00 15.3 54 26.2 0 0.0 2.5 9.0 136
08/04/2021 18:10 15.2 55 13.3 0 0.0 1.9 6.9 128
08/04/2021 18:20 15.0 55 0.0 0 0.0 1.8 6.5 130
08/04/2021 18:30 14.8 56 0.0 0 0.0 1.5 5.2 121
08/04/2021 18:40 14.8 56 0.0 0 0.0 1.0 3.7 144
08/04/2021 18:50 14.8 55 0.0 0 0.0 0.6 2.2 154
08/04/2021 19:00 14.6 57 0.0 0 0.0 1.0 3.7 162
08/04/2021 19:10 14.2 59 0.0 0 0.0 1.6 5.8 166
08/04/2021 19:20 13.6 62 0.0 0 0.0 1.6 5.9 152
08/04/2021 19:30 13.6 62 0.0 0 0.0 1.8 6.5 130
08/04/2021 19:40 13.8 61 0.0 0 0.0 1.9 6.7 121
08/04/2021 19:50 13.6 61 0.0 0 0.0 3.1 11.3 141
08/04/2021 20:00 13.5 60 0.0 0 0.0 3.8 13.5 141
08/04/2021 20:10 13.3 61 0.0 0 0.0 3.4 12.3 134
08/04/2021 20:20 13.1 62 0.0 0 0.0 2.8 9.9 130
08/04/2021 20:30 12.7 63 0.0 0 0.0 3.2 11.5 132
08/04/2021 20:40 12.5 64 0.0 0 0.0 3.5 12.7 139
08/04/2021 20:50 12.4 64 0.0 0 0.0 4.3 15.6 145
08/04/2021 21:00 12.3 64 0.0 0 0.0 4.3 15.6 143
08/04/2021 21:10 12.3 64 0.0 0 0.0 4.5 16.1 147
08/04/2021 21:20 12.1 65 0.0 0 0.0 4.8 17.3 145
08/04/2021 21:30 12.1 64 0.0 0 0.0 5.2 18.8 145
08/04/2021 21:40 11.9 64 0.0 0 0.0 4.9 17.6 144
08/04/2021 21:50 11.7 66 0.0 0 0.0 4.6 16.5 146
08/04/2021 22:00 11.5 66 0.0 0 0.0 3.9 14.0 158
08/04/2021 22:10 10.8 69 0.0 0 0.0 3.6 12.9 166
08/04/2021 22:20 10.8 70 0.0 0 0.0 4.2 14.9 156
08/04/2021 22:30 11.1 68 0.0 0 0.0 4.7 16.9 158
08/04/2021 22:40 11.2 68 0.0 0 0.0 5.3 19.1 152
08/04/2021 22:50 11.1 68 0.0 0 0.0 4.8 17.1 157
08/04/2021 23:00 10.9 69 0.0 0 0.0 3.8 13.5 156
08/04/2021 23:10 10.7 69 0.0 0 0.0 4.1 14.8 143
08/04/2021 23:20 10.8 68 0.0 0 0.0 4.2 15.2 144
08/04/2021 23:30 10.7 69 0.0 0 0.0 4.5 16.3 149
08/04/2021 23:40 10.5 71 0.0 0 0.0 4.0 14.3 147
08/04/2021 23:50 10.5 71 0.0 0 0.0 3.8 13.6 142
Anterior Página 1 de 1 Siguiente

NOTA: Tipo de datos según el color:
   - Valores diarios o 10 minutos correctos
   - Valores diarios calculados a partir de un número de datos 10 minutos menor que 144 y mayor que 120, o de un número de datos semihorarios menor que 48 y mayor que 40 (caso de las estaciones de INTIA Y Ministerio)
   - Valores diez minutos estimados


Contacto        Enlaces        Aviso legal